Time;durP1;ratioP1;P1;durP2;ratioP2;P2;SDS_P1;SDS_P2;PMS_P1;PMS_P2;Temp;Humidity;BMP_temperature;BMP_pressure;BME280_temperature;BME280_humidity;BME280_pressure;Samples;Min_cycle;Max_cycle;Signal;HPM_P1;HPM_P2
2023/07/30 00:00:45;;;;;;;6.80;2.15;;;16.60;94.60;;;;;;5008353;28;87699;-76
2023/07/30 00:03:11;;;;;;;7.85;2.03;;;16.60;94.40;;;;;;5007311;28;87884;-77
2023/07/30 00:05:36;;;;;;;9.32;2.72;;;16.60;94.60;;;;;;5006778;28;88224;-77
2023/07/30 00:08:02;;;;;;;8.77;2.22;;;16.60;94.30;;;;;;5008293;27;88169;-77
2023/07/30 00:10:27;;;;;;;8.40;2.17;;;16.70;94.50;;;;;;5007167;27;87165;-77
2023/07/30 00:12:53;;;;;;;6.80;2.28;;;16.70;94.20;;;;;;5007069;28;86891;-77
2023/07/30 00:15:19;;;;;;;6.55;2.28;;;16.80;93.90;;;;;;5007215;28;88571;-77
2023/07/30 00:17:44;;;;;;;10.65;3.63;;;16.80;93.90;;;;;;5005327;28;87615;-77
2023/07/30 00:20:10;;;;;;;6.35;2.88;;;16.80;93.90;;;;;;5005371;27;88654;-77
2023/07/30 00:22:36;;;;;;;10.75;2.42;;;16.90;93.90;;;;;;5005105;28;88516;-76
2023/07/30 00:25:01;;;;;;;10.77;3.30;;;16.90;93.70;;;;;;5006568;28;88536;-77
2023/07/30 00:27:27;;;;;;;10.15;2.92;;;16.90;93.70;;;;;;5007946;28;88070;-77
2023/07/30 00:29:52;;;;;;;8.68;2.60;;;16.90;93.60;;;;;;4988650;28;87448;-77
2023/07/30 00:32:18;;;;;;;5.85;1.83;;;16.90;93.70;;;;;;5005562;28;87514;-76
2023/07/30 00:34:43;;;;;;;5.68;2.25;;;16.90;93.40;;;;;;5006617;28;88408;-77
2023/07/30 00:37:09;;;;;;;8.63;2.05;;;16.90;93.40;;;;;;5006824;28;88474;-77
2023/07/30 00:39:35;;;;;;;7.82;2.58;;;16.80;93.40;;;;;;5008738;28;87136;-77
2023/07/30 00:42:01;;;;;;;10.00;2.33;;;16.80;93.50;;;;;;5006635;28;87696;-77
2023/07/30 00:44:26;;;;;;;6.03;2.22;;;16.80;93.60;;;;;;5005245;27;89548;-77
2023/07/30 00:46:52;;;;;;;8.63;2.30;;;16.80;93.70;;;;;;5004320;28;89033;-77
2023/07/30 00:49:18;;;;;;;15.85;3.05;;;16.80;93.70;;;;;;5005459;28;87817;-77
2023/07/30 00:51:44;;;;;;;8.10;2.20;;;16.80;93.70;;;;;;5006142;28;87864;-76
2023/07/30 00:54:11;;;;;;;5.68;2.08;;;16.80;93.90;;;;;;5008101;28;88399;-77
2023/07/30 00:56:37;;;;;;;9.55;2.80;;;16.80;93.90;;;;;;5006226;28;88303;-77
2023/07/30 00:59:03;;;;;;;7.82;2.33;;;16.80;93.90;;;;;;5005994;28;87304;-77
2023/07/30 01:01:33;;;;;;;9.35;2.67;;;16.70;94.00;;;;;;5005924;28;87890;-77
2023/07/30 01:03:59;;;;;;;15.20;3.28;;;16.70;94.20;;;;;;5005964;28;88659;-77
2023/07/30 01:06:24;;;;;;;6.82;2.13;;;16.70;94.20;;;;;;5006015;28;87519;-77
2023/07/30 01:08:50;;;;;;;12.32;2.90;;;16.80;94.30;;;;;;5006267;27;88380;-77
2023/07/30 01:11:17;;;;;;;9.05;2.58;;;16.70;94.30;;;;;;5005883;27;87980;-77
2023/07/30 01:13:43;;;;;;;4.93;1.98;;;16.70;94.30;;;;;;5005175;28;88414;-77
2023/07/30 01:16:10;;;;;;;6.00;2.30;;;16.70;94.40;;;;;;5005574;28;88313;-77
2023/07/30 01:18:35;;;;;;;10.13;2.67;;;16.80;94.30;;;;;;5006553;28;87850;-77
2023/07/30 01:21:01;;;;;;;9.27;2.47;;;16.80;94.30;;;;;;5005116;28;88016;-77
2023/07/30 01:23:27;;;;;;;9.30;2.55;;;16.70;94.30;;;;;;5006102;28;87966;-77
2023/07/30 01:26:10;;;;;;;11.85;2.72;;;16.70;93.90;;;;;;5006423;27;88265;-77
2023/07/30 01:28:42;;;;;;;9.02;2.60;;;16.80;93.80;;;;;;5006923;28;88093;-77
2023/07/30 01:31:09;;;;;;;9.20;2.17;;;16.80;93.70;;;;;;5003531;28;88822;-77
2023/07/30 01:33:36;;;;;;;9.75;2.28;;;16.80;93.60;;;;;;4993647;28;91845;-76
2023/07/30 01:36:03;;;;;;;9.48;2.17;;;16.80;93.60;;;;;;5005507;28;89107;-77
2023/07/30 01:38:30;;;;;;;8.50;2.20;;;16.80;93.70;;;;;;5006087;28;87527;-77
2023/07/30 01:40:56;;;;;;;9.88;2.33;;;16.80;93.80;;;;;;5007177;28;87368;-77
2023/07/30 01:43:21;;;;;;;4.35;1.88;;;16.80;93.80;;;;;;5006013;28;88457;-76
2023/07/30 01:45:47;;;;;;;7.25;1.98;;;16.80;94.10;;;;;;5005907;27;87955;-77
2023/07/30 01:48:12;;;;;;;5.40;2.25;;;16.80;94.10;;;;;;5007928;28;87074;-77
2023/07/30 01:50:38;;;;;;;11.45;2.53;;;16.80;94.20;;;;;;5007394;28;94506;-77
2023/07/30 01:53:04;;;;;;;9.20;2.20;;;16.80;94.20;;;;;;4986643;28;91995;-77
2023/07/30 01:55:29;;;;;;;8.85;2.47;;;16.80;94.40;;;;;;5005160;28;88339;-77
2023/07/30 01:57:55;;;;;;;6.57;2.10;;;16.90;94.50;;;;;;5005251;28;88538;-77
2023/07/30 02:00:20;;;;;;;10.68;2.88;;;16.90;94.70;;;;;;5004661;28;88038;-77
2023/07/30 02:02:46;;;;;;;10.57;3.20;;;16.80;94.70;;;;;;5005257;27;88707;-77
2023/07/30 02:05:12;;;;;;;14.68;2.97;;;16.80;94.90;;;;;;5005527;28;88408;-77
2023/07/30 02:07:37;;;;;;;10.18;2.38;;;16.80;95.00;;;;;;5006054;28;87785;-77
2023/07/30 02:10:03;;;;;;;15.23;4.72;;;16.80;95.00;;;;;;5005111;28;87528;-77
2023/07/30 02:12:29;;;;;;;10.90;2.95;;;16.80;95.20;;;;;;5005006;28;88320;-77
2023/07/30 02:14:54;;;;;;;11.93;2.20;;;16.80;95.20;;;;;;4987381;28;91579;-77
2023/07/30 02:17:20;;;;;;;14.27;2.70;;;16.80;95.10;;;;;;5006220;27;87119;-77
2023/07/30 02:19:46;;;;;;;10.85;2.60;;;16.70;95.20;;;;;;5004480;28;87704;-76
2023/07/30 02:22:11;;;;;;;9.48;2.33;;;16.80;95.50;;;;;;5004876;28;88438;-77
2023/07/30 02:24:37;;;;;;;11.35;2.67;;;16.80;95.90;;;;;;5006837;28;89827;-77
2023/07/30 02:27:02;;;;;;;10.40;2.47;;;16.70;96.00;;;;;;5005738;28;87756;-77
2023/07/30 02:29:28;;;;;;;7.90;1.77;;;16.60;96.10;;;;;;4985799;28;89939;-77
2023/07/30 02:31:54;;;;;;;11.13;2.33;;;16.50;95.60;;;;;;5006146;28;87766;-76
2023/07/30 02:34:19;;;;;;;13.02;2.30;;;16.30;96.00;;;;;;5004935;28;87719;-77
2023/07/30 02:36:45;;;;;;;7.63;1.90;;;16.20;96.20;;;;;;5006496;28;87458;-76
2023/07/30 02:39:10;;;;;;;12.32;2.28;;;16.00;96.60;;;;;;5006235;28;87365;-77
2023/07/30 02:41:36;;;;;;;10.77;2.00;;;15.90;97.10;;;;;;5006855;27;88469;-76
2023/07/30 02:44:02;;;;;;;6.30;1.83;;;15.80;97.10;;;;;;5005386;27;88179;-76
2023/07/30 02:46:27;;;;;;;8.27;1.73;;;15.70;97.40;;;;;;5004181;28;88553;-77
2023/07/30 02:48:53;;;;;;;11.48;2.00;;;15.60;97.50;;;;;;5006056;28;87745;-76
2023/07/30 02:51:18;;;;;;;8.77;1.85;;;15.60;97.70;;;;;;5005601;28;89556;-76
2023/07/30 02:53:44;;;;;;;8.20;1.80;;;15.60;97.60;;;;;;5005637;28;88317;-76
2023/07/30 02:56:10;;;;;;;13.32;1.90;;;15.60;97.90;;;;;;5005798;28;87387;-76
2023/07/30 02:58:35;;;;;;;13.40;2.00;;;15.50;97.80;;;;;;5004321;28;87543;-77
2023/07/30 03:01:07;;;;;;;9.23;2.17;;;15.50;97.90;;;;;;5006893;28;88750;-77
2023/07/30 03:03:33;;;;;;;12.68;1.88;;;15.50;98.00;;;;;;5008397;28;88176;-77
2023/07/30 03:05:59;;;;;;;10.02;1.83;;;15.50;98.20;;;;;;5006319;28;87569;-77
2023/07/30 03:08:25;;;;;;;10.63;2.80;;;15.40;98.30;;;;;;5005892;28;87831;-77
2023/07/30 03:10:50;;;;;;;9.35;1.67;;;15.40;98.30;;;;;;5004615;28;88683;-77
2023/07/30 03:13:16;;;;;;;17.60;2.35;;;15.30;98.30;;;;;;5004731;28;89264;-77
2023/07/30 03:15:41;;;;;;;10.00;1.92;;;15.30;98.40;;;;;;5004854;28;87806;-77
2023/07/30 03:18:07;;;;;;;9.25;1.60;;;15.20;98.00;;;;;;5006707;28;88055;-77
2023/07/30 03:20:32;;;;;;;11.27;2.10;;;15.20;98.20;;;;;;5005190;28;88221;-77
2023/07/30 03:22:58;;;;;;;10.88;2.70;;;15.20;98.20;;;;;;5004407;28;88545;-77
2023/07/30 03:25:24;;;;;;;10.90;1.75;;;15.10;98.10;;;;;;5004952;28;87770;-77
2023/07/30 03:27:49;;;;;;;11.00;1.40;;;15.10;98.30;;;;;;4986912;28;89744;-77
2023/07/30 03:30:15;;;;;;;10.52;1.30;;;15.10;98.20;;;;;;5004612;28;89040;-77
2023/07/30 03:32:40;;;;;;;10.60;1.33;;;15.10;98.20;;;;;;5004897;28;87137;-77
2023/07/30 03:35:06;;;;;;;7.45;1.15;;;15.00;98.20;;;;;;5004956;28;88443;-77
2023/07/30 03:37:32;;;;;;;9.10;1.38;;;15.00;98.10;;;;;;5004447;28;87861;-78
2023/07/30 03:39:57;;;;;;;8.45;1.83;;;15.00;97.80;;;;;;4994561;28;89872;-77
2023/07/30 03:42:23;;;;;;;6.72;1.10;;;15.00;97.90;;;;;;5005083;28;87920;-77
2023/07/30 03:44:49;;;;;;;6.80;1.38;;;15.00;98.00;;;;;;5004305;28;87451;-77
2023/07/30 03:47:14;;;;;;;8.48;1.27;;;15.00;97.90;;;;;;5004996;28;87635;-77
2023/07/30 03:49:40;;;;;;;7.35;0.90;;;15.00;97.80;;;;;;5006066;28;88591;-77
2023/07/30 03:52:06;;;;;;;7.93;1.08;;;14.90;97.80;;;;;;4986909;28;91484;-77
2023/07/30 03:54:31;;;;;;;2.92;0.77;;;14.80;97.70;;;;;;5007629;28;87441;-77
2023/07/30 03:56:57;;;;;;;7.25;0.98;;;14.80;97.70;;;;;;5006993;28;87376;-77
2023/07/30 03:59:22;;;;;;;5.40;1.17;;;14.70;97.90;;;;;;5002631;28;89917;-78
2023/07/30 04:01:49;;;;;;;8.40;1.00;;;14.60;97.90;;;;;;5004805;27;88106;-77
2023/07/30 04:04:14;;;;;;;4.65;0.95;;;14.60;98.00;;;;;;5004343;28;87510;-78
2023/07/30 04:06:40;;;;;;;6.28;0.90;;;14.60;98.30;;;;;;5005187;28;87816;-78
2023/07/30 04:09:05;;;;;;;7.88;1.10;;;14.60;98.30;;;;;;5004956;28;88338;-78
2023/07/30 04:11:31;;;;;;;7.10;1.00;;;14.60;98.40;;;;;;5004216;28;88476;-78
2023/07/30 04:13:57;;;;;;;9.00;1.88;;;14.60;98.40;;;;;;5004785;28;87843;-78
2023/07/30 04:16:22;;;;;;;9.05;0.90;;;14.60;98.60;;;;;;5005272;28;87393;-78
2023/07/30 04:18:48;;;;;;;9.32;1.13;;;14.60;98.70;;;;;;5004455;27;88581;-77
2023/07/30 04:21:15;;;;;;;5.05;1.10;;;14.60;98.80;;;;;;5004879;28;87505;-78
2023/07/30 04:23:40;;;;;;;5.43;1.00;;;14.60;98.80;;;;;;5004857;28;88475;-78
2023/07/30 04:26:06;;;;;;;9.65;1.30;;;14.60;99.10;;;;;;4985851;28;89817;-78
2023/07/30 04:28:31;;;;;;;8.18;1.20;;;14.60;98.80;;;;;;5005197;28;88338;-77
2023/07/30 04:30:57;;;;;;;8.15;1.80;;;14.70;99.00;;;;;;5005736;28;87848;-77
2023/07/30 04:33:22;;;;;;;9.02;1.45;;;14.70;99.10;;;;;;5006239;28;87756;-77
2023/07/30 04:35:48;;;;;;;5.63;1.10;;;14.70;99.30;;;;;;5005844;28;89511;-78
2023/07/30 04:38:14;;;;;;;7.43;1.13;;;14.70;99.30;;;;;;4989842;28;91614;-77
2023/07/30 04:40:39;;;;;;;10.80;1.27;;;14.70;99.40;;;;;;5007898;27;87397;-77
2023/07/30 04:43:05;;;;;;;11.25;1.55;;;14.70;99.50;;;;;;5009305;28;87760;-77
2023/07/30 04:45:31;;;;;;;9.60;1.50;;;14.80;99.50;;;;;;5009876;28;87895;-78
2023/07/30 04:47:57;;;;;;;8.48;1.60;;;14.80;99.50;;;;;;5006606;28;89992;-77
2023/07/30 04:50:22;;;;;;;7.25;1.58;;;14.80;99.60;;;;;;5008933;28;88809;-78
2023/07/30 04:52:48;;;;;;;11.30;2.35;;;14.80;99.40;;;;;;5006480;28;87505;-78
2023/07/30 04:55:13;;;;;;;7.00;1.33;;;14.90;99.50;;;;;;5007372;28;87982;-78
2023/07/30 04:57:39;;;;;;;6.05;1.40;;;14.90;99.50;;;;;;5008879;28;89165;-78
2023/07/30 05:00:05;;;;;;;6.75;1.30;;;14.90;99.40;;;;;;5008791;28;88348;-77
2023/07/30 05:02:31;;;;;;;11.15;1.88;;;15.00;99.30;;;;;;5009578;28;87777;-77
2023/07/30 05:04:57;;;;;;;8.75;2.13;;;15.00;99.30;;;;;;5008997;28;87303;-78
2023/07/30 05:07:22;;;;;;;8.93;1.60;;;15.00;99.40;;;;;;5008273;28;88756;-77
2023/07/30 05:09:48;;;;;;;9.90;1.33;;;15.00;99.30;;;;;;5008057;28;87400;-77
2023/07/30 05:12:13;;;;;;;7.72;1.50;;;15.00;99.50;;;;;;5009709;28;88831;-78
2023/07/30 05:14:39;;;;;;;12.02;2.05;;;15.00;99.50;;;;;;5002641;27;87823;-78
2023/07/30 05:17:05;;;;;;;14.10;1.73;;;15.10;99.50;;;;;;5002678;28;89128;-77
2023/07/30 05:19:32;;;;;;;13.10;1.67;;;15.10;99.40;;;;;;5001573;28;88096;-78
2023/07/30 05:21:59;;;;;;;13.05;2.40;;;15.10;99.40;;;;;;4983354;27;87970;-78
2023/07/30 05:24:25;;;;;;;9.63;1.60;;;15.10;99.40;;;;;;5003520;28;87374;-78
2023/07/30 05:26:50;;;;;;;8.38;1.55;;;15.10;99.50;;;;;;5004616;28;89120;-78
2023/07/30 05:29:16;;;;;;;8.52;1.52;;;15.20;99.40;;;;;;5007526;28;88183;-78
2023/07/30 05:31:41;;;;;;;11.27;1.40;;;15.20;99.40;;;;;;4990857;28;87628;-78
2023/07/30 05:34:07;;;;;;;8.45;1.42;;;15.30;99.50;;;;;;5005511;28;87611;-78
2023/07/30 05:36:32;;;;;;;12.90;2.63;;;15.30;99.40;;;;;;5007038;28;89818;-78
2023/07/30 05:38:58;;;;;;;12.25;1.88;;;15.30;99.50;;;;;;5006426;28;89332;-78
2023/07/30 05:41:24;;;;;;;9.70;1.63;;;15.40;99.50;;;;;;5008116;28;87755;-78
2023/07/30 05:43:49;;;;;;;8.98;1.83;;;15.40;99.40;;;;;;5007058;28;87712;-78
2023/07/30 05:46:15;;;;;;;10.45;2.17;;;15.40;99.30;;;;;;5005492;28;88237;-78
2023/07/30 05:48:40;;;;;;;7.57;2.15;;;15.50;99.30;;;;;;5006352;28;88404;-78
2023/07/30 05:51:06;;;;;;;12.30;2.00;;;15.50;99.20;;;;;;5007833;28;87729;-78
2023/07/30 05:53:31;;;;;;;11.32;2.28;;;15.60;99.10;;;;;;5006128;28;87863;-78
2023/07/30 05:55:57;;;;;;;9.95;1.95;;;15.60;99.10;;;;;;4987743;28;91582;-79
2023/07/30 05:58:23;;;;;;;15.52;2.08;;;15.70;99.20;;;;;;5006911;28;88375;-79
2023/07/30 06:00:48;;;;;;;12.23;1.90;;;15.70;99.10;;;;;;4989120;28;88479;-79
2023/07/30 06:03:14;;;;;;;10.38;2.40;;;15.80;98.80;;;;;;5006237;28;87774;-79
2023/07/30 06:05:40;;;;;;;12.05;2.38;;;15.80;99.20;;;;;;5005828;27;88186;-79
2023/07/30 06:08:07;;;;;;;7.47;1.60;;;15.80;98.90;;;;;;5007126;28;88190;-79
2023/07/30 06:10:36;;;;;;;16.05;2.10;;;15.80;99.00;;;;;;4989386;28;87201;-79
2023/07/30 06:13:01;;;;;;;15.20;1.65;;;15.90;99.00;;;;;;5004798;28;87733;-79
2023/07/30 06:15:27;;;;;;;11.75;1.60;;;15.90;98.80;;;;;;4987465;28;90084;-79
2023/07/30 06:17:53;;;;;;;13.95;2.20;;;16.00;98.50;;;;;;5009653;27;87819;-80
2023/07/30 06:20:20;;;;;;;18.60;2.15;;;16.00;98.50;;;;;;5008687;28;87782;-78
2023/07/30 06:22:45;;;;;;;15.00;2.35;;;16.10;98.60;;;;;;4986252;28;90154;-78
2023/07/30 06:25:11;;;;;;;10.73;2.00;;;16.10;98.50;;;;;;5004043;27;89003;-78
2023/07/30 06:27:37;;;;;;;10.95;2.17;;;16.10;98.50;;;;;;5004219;28;89678;-78
2023/07/30 06:30:03;;;;;;;10.55;1.80;;;16.20;98.50;;;;;;5004978;28;88055;-78
2023/07/30 06:32:28;;;;;;;8.23;2.63;;;16.20;98.60;;;;;;5005972;28;87818;-78
2023/07/30 06:34:54;;;;;;;17.00;2.35;;;16.30;98.50;;;;;;5005515;28;88390;-78
2023/07/30 06:37:19;;;;;;;14.40;2.22;;;16.30;98.30;;;;;;5005420;28;87967;-78
2023/07/30 06:39:45;;;;;;;18.23;2.55;;;16.40;98.40;;;;;;5006314;28;88139;-78
2023/07/30 06:42:11;;;;;;;9.85;2.63;;;16.40;98.30;;;;;;5007865;28;87857;-78
2023/07/30 06:44:36;;;;;;;22.98;4.15;;;16.50;98.10;;;;;;5005269;28;88040;-78
2023/07/30 06:47:02;;;;;;;17.30;2.45;;;16.50;98.00;;;;;;5001599;28;89320;-78
2023/07/30 06:49:28;;;;;;;17.45;2.97;;;16.60;97.70;;;;;;5003083;27;88564;-78
2023/07/30 06:51:53;;;;;;;15.90;3.30;;;16.60;97.70;;;;;;5004911;28;87059;-78
2023/07/30 06:54:20;;;;;;;12.65;2.33;;;16.60;97.60;;;;;;5006667;28;88961;-78
2023/07/30 06:56:46;;;;;;;12.15;2.97;;;16.70;97.60;;;;;;5020146;28;91684;-80
2023/07/30 06:59:12;;;;;;;18.95;2.80;;;16.70;97.70;;;;;;5009041;28;87818;-77
2023/07/30 07:01:37;;;;;;;22.52;3.17;;;16.70;97.80;;;;;;5006576;28;87696;-77
2023/07/30 07:04:03;;;;;;;22.10;2.78;;;16.80;97.30;;;;;;4987505;28;88951;-79
2023/07/30 07:06:28;;;;;;;13.95;2.20;;;16.80;97.20;;;;;;4989019;28;90436;-79
2023/07/30 07:08:54;;;;;;;16.95;2.72;;;16.80;97.20;;;;;;5007628;28;87750;-79
2023/07/30 07:11:20;;;;;;;14.93;2.75;;;16.90;97.00;;;;;;5007419;27;87488;-78
2023/07/30 07:13:45;;;;;;;18.83;2.90;;;16.90;96.90;;;;;;5007564;28;88825;-78
2023/07/30 07:16:11;;;;;;;16.40;2.58;;;16.90;97.00;;;;;;4988520;28;90156;-78
2023/07/30 07:18:36;;;;;;;19.77;2.90;;;16.90;96.80;;;;;;5005051;28;87692;-77
2023/07/30 07:21:02;;;;;;;13.63;2.38;;;17.00;97.00;;;;;;5004445;27;87609;-78
2023/07/30 07:23:28;;;;;;;17.58;3.15;;;17.00;96.70;;;;;;5005439;28;87585;-79
2023/07/30 07:25:53;;;;;;;16.45;3.35;;;17.00;97.00;;;;;;4988584;28;90929;-78
2023/07/30 07:28:19;;;;;;;19.25;3.00;;;17.00;96.50;;;;;;5005696;28;87176;-78
2023/07/30 07:30:44;;;;;;;15.32;3.30;;;17.10;96.30;;;;;;5003277;28;87870;-78
2023/07/30 07:33:12;;;;;;;18.02;3.00;;;17.10;96.50;;;;;;5007185;28;88658;-78
2023/07/30 07:35:39;;;;;;;21.88;3.22;;;17.10;96.40;;;;;;5008035;28;88447;-78
2023/07/30 07:38:05;;;;;;;13.30;2.60;;;17.10;96.80;;;;;;4991347;28;88280;-77
2023/07/30 07:40:35;;;;;;;22.02;2.85;;;17.10;96.60;;;;;;5005827;28;87865;-79
2023/07/30 07:43:01;;;;;;;16.85;2.75;;;17.20;96.30;;;;;;5004551;27;88983;-78
2023/07/30 07:45:26;;;;;;;13.80;3.05;;;17.30;96.10;;;;;;5005998;28;88362;-78
2023/07/30 07:47:52;;;;;;;12.55;2.22;;;17.30;96.00;;;;;;5019983;27;88449;-78
2023/07/30 07:50:17;;;;;;;15.82;2.50;;;17.40;96.10;;;;;;4985794;28;91210;-79
2023/07/30 07:52:43;;;;;;;16.48;2.97;;;17.50;96.30;;;;;;4986465;28;90375;-79
2023/07/30 07:55:09;;;;;;;22.50;2.42;;;17.60;95.90;;;;;;4984643;28;91512;-79
2023/07/30 07:57:34;;;;;;;21.48;3.13;;;17.70;96.00;;;;;;5005213;28;87570;-79
2023/07/30 08:00:00;;;;;;;14.23;2.40;;;17.80;95.00;;;;;;5004709;28;88059;-83
2023/07/30 08:02:26;;;;;;;14.45;2.25;;;17.90;95.00;;;;;;5005719;28;89773;-83
2023/07/30 08:04:52;;;;;;;15.68;2.92;;;18.00;94.20;;;;;;4988039;28;91977;-83
2023/07/30 08:07:18;;;;;;;15.85;2.50;;;18.10;94.10;;;;;;5006253;28;87877;-81
2023/07/30 08:09:43;;;;;;;17.27;3.13;;;18.20;93.90;;;;;;4988670;28;93340;-81
2023/07/30 08:12:09;;;;;;;12.38;2.00;;;18.30;93.30;;;;;;4990601;28;90198;-79
2023/07/30 08:14:34;;;;;;;15.90;2.35;;;18.30;92.60;;;;;;5008515;28;87783;-79
2023/07/30 08:17:00;;;;;;;18.48;2.45;;;18.30;93.50;;;;;;5009611;27;87533;-79
2023/07/30 08:19:26;;;;;;;15.57;2.75;;;18.40;93.20;;;;;;4990961;28;88124;-78
2023/07/30 08:21:51;;;;;;;16.17;2.60;;;18.40;92.50;;;;;;5008267;27;88862;-79
2023/07/30 08:24:17;;;;;;;15.05;2.40;;;18.40;92.90;;;;;;5009723;28;87752;-78
2023/07/30 08:26:43;;;;;;;13.85;2.65;;;18.50;93.30;;;;;;5006446;28;88462;-80
2023/07/30 08:29:10;;;;;;;19.52;2.95;;;18.70;92.90;;;;;;5022487;28;90292;-79
2023/07/30 08:31:35;;;;;;;16.80;3.20;;;18.80;92.20;;;;;;5006938;27;87640;-78
2023/07/30 08:34:01;;;;;;;9.52;2.00;;;18.90;91.90;;;;;;5007501;27;88476;-87
2023/07/30 08:36:26;;;;;;;13.35;2.22;;;18.90;91.40;;;;;;4990737;28;87188;-81
2023/07/30 08:38:52;;;;;;;11.68;1.77;;;19.00;91.60;;;;;;4989604;28;90624;-81
2023/07/30 08:41:18;;;;;;;12.52;2.15;;;19.10;90.50;;;;;;4989126;28;88983;-83
2023/07/30 08:43:48;;;;;;;11.95;2.30;;;19.20;91.10;;;;;;4991039;28;91201;-82
2023/07/30 08:46:17;;;;;;;11.43;2.03;;;19.30;90.70;;;;;;5004300;28;87693;-83
2023/07/30 08:48:42;;;;;;;13.18;2.63;;;19.40;90.60;;;;;;5007392;28;87411;-82
2023/07/30 08:51:08;;;;;;;10.38;1.40;;;19.50;89.80;;;;;;5021987;28;91385;-83
2023/07/30 08:53:34;;;;;;;13.32;2.25;;;19.50;88.20;;;;;;5008415;28;89112;-81
2023/07/30 08:56:01;;;;;;;9.52;1.73;;;19.50;86.50;;;;;;5022774;28;87551;-81
2023/07/30 08:58:28;;;;;;;13.27;1.95;;;19.50;87.70;;;;;;5006494;28;87714;-82
2023/07/30 09:00:57;;;;;;;12.25;1.52;;;19.60;86.10;;;;;;5024364;27;90792;-82
2023/07/30 09:03:25;;;;;;;9.88;1.80;;;19.70;88.00;;;;;;5006599;28;87891;-82
2023/07/30 09:05:51;;;;;;;14.88;1.48;;;19.80;87.10;;;;;;5023277;28;87761;-82
2023/07/30 09:08:18;;;;;;;9.45;1.92;;;19.90;88.70;;;;;;4988947;28;89534;-82
2023/07/30 09:10:43;;;;;;;5.72;1.52;;;20.00;86.10;;;;;;5005953;27;88690;-83
2023/07/30 09:13:09;;;;;;;17.52;2.13;;;20.10;84.40;;;;;;4988835;28;91438;-83
2023/07/30 09:15:38;;;;;;;7.47;1.77;;;20.10;84.70;;;;;;4988797;28;88721;-84
2023/07/30 09:18:05;;;;;;;13.90;1.83;;;20.10;85.00;;;;;;5022401;28;94461;-85
2023/07/30 09:20:41;;;;;;;8.05;1.45;;;20.10;82.70;;;;;;4990005;28;91691;-84
2023/07/30 09:23:08;;;;;;;12.52;1.75;;;20.20;84.80;;;;;;5022332;27;91116;-84
2023/07/30 09:25:34;;;;;;;9.25;1.35;;;20.20;84.10;;;;;;5021602;28;88831;-82
2023/07/30 09:28:00;;;;;;;10.35;1.80;;;20.20;85.20;;;;;;4986747;27;90044;-83
2023/07/30 09:30:29;;;;;;;11.57;1.77;;;20.30;83.10;;;;;;4990800;28;91553;-82
2023/07/30 09:32:57;;;;;;;9.13;1.63;;;20.40;82.80;;;;;;4997975;28;91486;-82
2023/07/30 09:35:26;;;;;;;10.18;1.85;;;20.50;84.50;;;;;;5021956;28;87996;-82
2023/07/30 09:38:03;;;;;;;12.77;1.92;;;20.50;83.10;;;;;;4988051;28;90368;-84
2023/07/30 09:40:34;;;;;;;6.35;1.48;;;20.50;81.50;;;;;;5005849;28;91104;-81
2023/07/30 09:42:59;;;;;;;9.52;2.03;;;20.50;83.00;;;;;;5004132;28;89631;-81
2023/07/30 09:45:26;;;;;;;10.15;1.90;;;20.50;81.00;;;;;;5007983;28;87527;-79
2023/07/30 09:47:53;;;;;;;8.63;1.30;;;20.40;81.10;;;;;;5005981;28;87493;-81
2023/07/30 09:50:19;;;;;;;13.77;2.00;;;20.30;81.30;;;;;;5007406;27;89086;-81
2023/07/30 09:52:45;;;;;;;9.27;1.42;;;20.30;83.00;;;;;;5005727;28;88020;-80
2023/07/30 09:55:11;;;;;;;12.90;2.05;;;20.20;82.70;;;;;;5006993;27;87303;-80
2023/07/30 09:57:38;;;;;;;7.13;1.38;;;20.30;82.60;;;;;;5007184;28;87362;-80
2023/07/30 10:00:06;;;;;;;11.23;1.60;;;20.40;82.50;;;;;;4989421;28;94886;-80
2023/07/30 10:02:36;;;;;;;9.48;1.70;;;20.40;80.70;;;;;;4987917;28;89922;-80
2023/07/30 10:05:07;;;;;;;8.05;1.27;;;20.50;80.80;;;;;;4995748;28;89038;-80
2023/07/30 10:07:35;;;;;;;11.40;1.50;;;20.50;79.90;;;;;;5007168;28;87900;-81
2023/07/30 10:10:02;;;;;;;8.98;1.98;;;20.50;81.20;;;;;;4995987;28;91843;-81
2023/07/30 10:12:32;;;;;;;7.80;1.30;;;20.50;80.00;;;;;;5007204;28;91269;-81
2023/07/30 10:14:58;;;;;;;10.88;1.20;;;20.50;79.90;;;;;;5008017;28;87431;-81
2023/07/30 10:17:23;;;;;;;8.50;1.40;;;20.40;80.00;;;;;;4987586;28;89506;-80
2023/07/30 10:19:50;;;;;;;6.57;1.38;;;20.30;81.00;;;;;;4989387;28;89852;-81
2023/07/30 10:22:19;;;;;;;8.32;1.60;;;20.20;82.80;;;;;;4989152;28;90292;-82
2023/07/30 10:25:04;;;;;;;10.77;1.55;;;20.00;84.40;;;;;;4996894;27;87592;-81
2023/07/30 10:27:40;;;;;;;11.73;1.63;;;19.90;84.40;;;;;;5021692;28;91838;-82
2023/07/30 10:30:19;;;;;;;6.30;1.17;;;19.80;85.30;;;;;;5006492;28;93322;-83
2023/07/30 10:32:57;;;;;;;8.27;2.05;;;19.80;86.00;;;;;;4986930;28;90861;-83
2023/07/30 10:35:40;;;;;;;5.68;1.70;;;19.80;87.30;;;;;;5004378;27;87720;-81
2023/07/30 10:38:17;;;;;;;5.40;1.03;;;19.80;87.90;;;;;;5006785;28;87767;-82
2023/07/30 10:41:00;;;;;;;8.95;1.23;;;19.70;88.80;;;;;;4987191;28;90884;-80
2023/07/30 10:43:40;;;;;;;8.50;1.10;;;19.60;88.90;;;;;;5007303;28;88037;-80
2023/07/30 10:46:06;;;;;;;8.43;1.63;;;19.50;89.70;;;;;;5007608;27;89029;-80
2023/07/30 10:48:40;;;;;;;12.60;1.70;;;19.50;90.50;;;;;;5007231;28;87377;-80
2023/07/30 10:51:08;;;;;;;10.77;1.70;;;19.50;91.00;;;;;;5005859;28;93556;-79
2023/07/30 10:53:36;;;;;;;9.38;2.00;;;19.50;91.00;;;;;;4995966;28;90808;-78
2023/07/30 10:56:03;;;;;;;8.18;1.23;;;19.50;90.70;;;;;;4986057;28;88774;-79
2023/07/30 10:58:30;;;;;;;7.75;1.33;;;19.50;91.30;;;;;;5004077;28;87541;-79
2023/07/30 11:00:57;;;;;;;7.82;1.38;;;19.60;91.20;;;;;;5004437;28;88408;-79
2023/07/30 11:03:26;;;;;;;10.75;2.42;;;19.70;90.90;;;;;;5004922;28;88399;-78
2023/07/30 11:05:52;;;;;;;6.20;1.38;;;19.80;90.80;;;;;;5004086;28;87666;-79
2023/07/30 11:08:18;;;;;;;6.68;1.25;;;19.80;90.90;;;;;;5005458;28;87467;-81
2023/07/30 11:10:46;;;;;;;9.45;1.60;;;19.80;90.60;;;;;;5004775;27;89009;-81
2023/07/30 11:13:13;;;;;;;6.00;1.15;;;19.80;90.90;;;;;;5004667;28;88358;-81
2023/07/30 11:15:43;;;;;;;9.20;1.42;;;19.80;90.40;;;;;;4988354;28;87664;-81
2023/07/30 11:18:09;;;;;;;6.88;1.55;;;19.80;89.40;;;;;;5004637;28;87887;-82
2023/07/30 11:20:35;;;;;;;7.80;1.50;;;19.80;90.50;;;;;;5004680;28;89918;-82
2023/07/30 11:23:00;;;;;;;8.50;1.65;;;19.80;91.20;;;;;;5005654;27;89739;-79
2023/07/30 11:25:26;;;;;;;6.20;1.55;;;20.00;91.90;;;;;;4988329;28;87534;-79
2023/07/30 11:27:52;;;;;;;5.82;1.20;;;20.20;92.00;;;;;;4986165;28;88672;-79
2023/07/30 11:30:19;;;;;;;7.10;1.25;;;20.40;91.00;;;;;;5005655;28;88539;-79
2023/07/30 11:32:45;;;;;;;6.45;1.23;;;20.60;91.90;;;;;;5005377;27;88125;-79
2023/07/30 11:35:12;;;;;;;7.70;1.77;;;20.90;91.20;;;;;;5004013;28;87695;-79
2023/07/30 11:37:40;;;;;;;9.35;1.80;;;21.40;90.90;;;;;;5005741;28;86995;-79
2023/07/30 11:40:10;;;;;;;8.55;1.55;;;21.50;89.60;;;;;;5004810;28;88284;-79
2023/07/30 11:42:39;;;;;;;8.63;1.20;;;21.70;85.30;;;;;;4986833;28;90708;-79
2023/07/30 11:45:22;;;;;;;5.95;1.30;;;21.90;81.80;;;;;;5005264;28;88315;-79
2023/07/30 11:47:48;;;;;;;10.80;1.42;;;22.00;79.40;;;;;;5009044;27;87833;-79
2023/07/30 11:50:15;;;;;;;8.85;1.52;;;22.10;78.00;;;;;;5009414;28;87798;-79
2023/07/30 11:52:56;;;;;;;4.45;0.98;;;22.20;76.10;;;;;;4990321;28;91004;-79
2023/07/30 11:55:24;;;;;;;13.68;1.23;;;22.20;74.70;;;;;;5006724;27;87711;-79
2023/07/30 11:57:50;;;;;;;5.97;1.20;;;22.20;75.90;;;;;;5007658;27;88210;-79
2023/07/30 12:00:20;;;;;;;10.65;1.63;;;22.30;71.90;;;;;;5007790;28;88739;-79
2023/07/30 12:02:46;;;;;;;5.03;1.23;;;22.00;72.10;;;;;;5007280;28;87726;-79
2023/07/30 12:05:12;;;;;;;7.72;1.35;;;21.80;73.40;;;;;;5009621;28;87434;-79
2023/07/30 12:07:41;;;;;;;6.55;1.08;;;21.70;75.60;;;;;;5007709;28;87654;-79
2023/07/30 12:10:11;;;;;;;7.28;1.80;;;21.70;74.60;;;;;;5005916;27;89514;-79
2023/07/30 12:12:43;;;;;;;8.00;1.20;;;21.70;75.10;;;;;;5007229;28;92733;-79
2023/07/30 12:15:12;;;;;;;6.43;2.00;;;21.80;75.70;;;;;;5005460;28;87589;-80
2023/07/30 12:17:39;;;;;;;5.97;1.00;;;21.80;73.90;;;;;;5006726;28;87573;-79
2023/07/30 12:20:06;;;;;;;7.40;1.40;;;21.90;74.60;;;;;;4989677;28;91698;-79
2023/07/30 12:22:35;;;;;;;7.10;1.52;;;22.10;73.70;;;;;;5004511;27;87569;-79
2023/07/30 12:25:03;;;;;;;6.65;1.35;;;22.20;74.00;;;;;;5006723;28;87106;-79
2023/07/30 12:27:29;;;;;;;7.18;1.23;;;22.40;73.70;;;;;;5007115;28;87240;-79
2023/07/30 12:29:54;;;;;;;8.98;1.33;;;22.50;73.80;;;;;;5006597;27;88325;-79
2023/07/30 12:32:20;;;;;;;6.70;1.23;;;22.70;73.00;;;;;;4990188;28;91267;-80
2023/07/30 12:34:46;;;;;;;6.80;1.00;;;22.90;69.90;;;;;;4989877;28;88609;-79
2023/07/30 12:37:11;;;;;;;7.85;1.50;;;23.00;69.20;;;;;;5006535;27;87539;-79
2023/07/30 12:39:37;;;;;;;9.52;1.30;;;23.10;67.20;;;;;;5009269;28;88740;-79